sensor_id;sensor_type;location;lat;lon;timestamp;P1;durP1;ratioP1;P2;durP2;ratioP2
45388;SDS011;31127;52.078;4.370;2023-04-03T00:00:36;6.05;;;1.40;;
45388;SDS011;31127;52.078;4.370;2023-04-03T00:05:31;3.17;;;1.20;;
45388;SDS011;31127;52.078;4.370;2023-04-03T00:10:27;5.82;;;1.20;;
45388;SDS011;31127;52.078;4.370;2023-04-03T00:15:23;2.35;;;1.20;;
45388;SDS011;31127;52.078;4.370;2023-04-03T00:20:19;4.53;;;1.58;;
45388;SDS011;31127;52.078;4.370;2023-04-03T00:25:14;7.05;;;2.17;;
45388;SDS011;31127;52.078;4.370;2023-04-03T00:30:11;4.45;;;1.65;;
45388;SDS011;31127;52.078;4.370;2023-04-03T00:35:08;4.85;;;2.08;;
45388;SDS011;31127;52.078;4.370;2023-04-03T00:40:04;3.70;;;1.23;;
45388;SDS011;31127;52.078;4.370;2023-04-03T00:49:56;3.97;;;1.92;;
45388;SDS011;31127;52.078;4.370;2023-04-03T00:54:52;3.63;;;1.60;;
45388;SDS011;31127;52.078;4.370;2023-04-03T00:59:50;3.47;;;1.60;;
45388;SDS011;31127;52.078;4.370;2023-04-03T01:04:47;4.10;;;1.58;;
45388;SDS011;31127;52.078;4.370;2023-04-03T01:09:42;3.55;;;1.40;;
45388;SDS011;31127;52.078;4.370;2023-04-03T01:14:39;5.25;;;2.00;;
45388;SDS011;31127;52.078;4.370;2023-04-03T01:19:35;5.20;;;1.55;;
45388;SDS011;31127;52.078;4.370;2023-04-03T01:24:53;3.85;;;1.70;;
45388;SDS011;31127;52.078;4.370;2023-04-03T01:29:49;5.70;;;1.75;;
45388;SDS011;31127;52.078;4.370;2023-04-03T01:34:44;2.78;;;1.50;;
45388;SDS011;31127;52.078;4.370;2023-04-03T01:39:40;3.08;;;1.40;;
45388;SDS011;31127;52.078;4.370;2023-04-03T01:44:36;5.18;;;1.73;;
45388;SDS011;31127;52.078;4.370;2023-04-03T01:49:31;2.73;;;1.47;;
45388;SDS011;31127;52.078;4.370;2023-04-03T01:54:27;5.63;;;1.48;;
45388;SDS011;31127;52.078;4.370;2023-04-03T01:59:22;4.80;;;1.40;;
45388;SDS011;31127;52.078;4.370;2023-04-03T02:04:19;2.95;;;2.05;;
45388;SDS011;31127;52.078;4.370;2023-04-03T02:09:14;2.07;;;1.40;;
45388;SDS011;31127;52.078;4.370;2023-04-03T02:14:10;5.43;;;1.35;;
45388;SDS011;31127;52.078;4.370;2023-04-03T02:19:05;5.47;;;1.85;;
45388;SDS011;31127;52.078;4.370;2023-04-03T02:24:02;4.03;;;1.90;;
45388;SDS011;31127;52.078;4.370;2023-04-03T02:28:58;2.88;;;1.67;;
45388;SDS011;31127;52.078;4.370;2023-04-03T02:34:13;4.97;;;1.48;;
45388;SDS011;31127;52.078;4.370;2023-04-03T02:39:12;6.20;;;1.77;;
45388;SDS011;31127;52.078;4.370;2023-04-03T02:44:08;6.97;;;1.77;;
45388;SDS011;31127;52.078;4.370;2023-04-03T02:49:04;4.18;;;1.60;;
45388;SDS011;31127;52.078;4.370;2023-04-03T02:54:01;5.80;;;1.80;;
45388;SDS011;31127;52.078;4.370;2023-04-03T02:59:00;3.75;;;1.90;;
45388;SDS011;31127;52.078;4.370;2023-04-03T03:03:56;5.88;;;1.50;;
45388;SDS011;31127;52.078;4.370;2023-04-03T03:08:51;6.65;;;1.98;;
45388;SDS011;31127;52.078;4.370;2023-04-03T03:13:47;5.97;;;1.83;;
45388;SDS011;31127;52.078;4.370;2023-04-03T03:18:42;4.50;;;2.20;;
45388;SDS011;31127;52.078;4.370;2023-04-03T03:23:38;5.75;;;1.55;;
45388;SDS011;31127;52.078;4.370;2023-04-03T03:28:37;7.65;;;1.88;;
45388;SDS011;31127;52.078;4.370;2023-04-03T03:33:34;4.30;;;1.75;;
45388;SDS011;31127;52.078;4.370;2023-04-03T03:38:30;5.88;;;1.83;;
45388;SDS011;31127;52.078;4.370;2023-04-03T03:43:27;8.13;;;1.88;;
45388;SDS011;31127;52.078;4.370;2023-04-03T03:48:23;3.50;;;1.63;;
45388;SDS011;31127;52.078;4.370;2023-04-03T03:53:19;4.05;;;1.88;;
45388;SDS011;31127;52.078;4.370;2023-04-03T03:58:16;3.72;;;1.60;;
45388;SDS011;31127;52.078;4.370;2023-04-03T04:03:12;5.10;;;1.92;;
45388;SDS011;31127;52.078;4.370;2023-04-03T04:08:08;6.93;;;2.25;;
45388;SDS011;31127;52.078;4.370;2023-04-03T04:13:03;6.05;;;2.05;;
45388;SDS011;31127;52.078;4.370;2023-04-03T04:18:00;5.22;;;2.00;;
45388;SDS011;31127;52.078;4.370;2023-04-03T04:23:17;5.53;;;2.22;;
45388;SDS011;31127;52.078;4.370;2023-04-03T04:28:14;3.97;;;2.13;;
45388;SDS011;31127;52.078;4.370;2023-04-03T04:33:10;4.75;;;1.83;;
45388;SDS011;31127;52.078;4.370;2023-04-03T04:38:21;6.68;;;1.85;;
45388;SDS011;31127;52.078;4.370;2023-04-03T04:43:17;4.70;;;2.05;;
45388;SDS011;31127;52.078;4.370;2023-04-03T04:48:15;7.53;;;2.50;;
45388;SDS011;31127;52.078;4.370;2023-04-03T04:53:11;7.25;;;2.30;;
45388;SDS011;31127;52.078;4.370;2023-04-03T04:58:07;6.18;;;1.95;;
45388;SDS011;31127;52.078;4.370;2023-04-03T05:03:04;4.25;;;2.13;;
45388;SDS011;31127;52.078;4.370;2023-04-03T05:08:00;6.97;;;2.45;;
45388;SDS011;31127;52.078;4.370;2023-04-03T05:12:56;6.20;;;2.22;;
45388;SDS011;31127;52.078;4.370;2023-04-03T05:17:51;4.97;;;2.17;;
45388;SDS011;31127;52.078;4.370;2023-04-03T05:22:47;7.55;;;2.65;;
45388;SDS011;31127;52.078;4.370;2023-04-03T05:27:43;4.57;;;2.45;;
45388;SDS011;31127;52.078;4.370;2023-04-03T05:32:58;10.20;;;3.22;;
45388;SDS011;31127;52.078;4.370;2023-04-03T05:38:06;8.25;;;2.67;;
45388;SDS011;31127;52.078;4.370;2023-04-03T05:43:23;6.05;;;2.53;;
45388;SDS011;31127;52.078;4.370;2023-04-03T05:48:19;10.18;;;3.42;;
45388;SDS011;31127;52.078;4.370;2023-04-03T05:53:18;7.47;;;2.88;;
45388;SDS011;31127;52.078;4.370;2023-04-03T05:58:14;7.55;;;2.47;;
45388;SDS011;31127;52.078;4.370;2023-04-03T06:03:14;4.63;;;2.25;;
45388;SDS011;31127;52.078;4.370;2023-04-03T06:08:11;6.25;;;3.25;;
45388;SDS011;31127;52.078;4.370;2023-04-03T06:13:26;3.72;;;2.35;;
45388;SDS011;31127;52.078;4.370;2023-04-03T06:18:22;8.63;;;2.80;;
45388;SDS011;31127;52.078;4.370;2023-04-03T06:23:18;6.38;;;2.70;;
45388;SDS011;31127;52.078;4.370;2023-04-03T06:28:16;8.27;;;2.78;;
45388;SDS011;31127;52.078;4.370;2023-04-03T06:33:14;7.25;;;2.38;;
45388;SDS011;31127;52.078;4.370;2023-04-03T06:38:09;5.35;;;2.67;;
45388;SDS011;31127;52.078;4.370;2023-04-03T06:43:25;6.75;;;2.70;;
45388;SDS011;31127;52.078;4.370;2023-04-03T06:48:21;8.07;;;2.70;;
45388;SDS011;31127;52.078;4.370;2023-04-03T06:53:16;9.27;;;2.72;;
45388;SDS011;31127;52.078;4.370;2023-04-03T06:58:12;10.15;;;2.67;;
45388;SDS011;31127;52.078;4.370;2023-04-03T07:03:07;4.95;;;2.22;;
45388;SDS011;31127;52.078;4.370;2023-04-03T07:08:03;5.00;;;2.45;;
45388;SDS011;31127;52.078;4.370;2023-04-03T07:12:59;7.80;;;2.97;;
45388;SDS011;31127;52.078;4.370;2023-04-03T07:17:56;6.93;;;2.58;;
45388;SDS011;31127;52.078;4.370;2023-04-03T07:23:12;5.78;;;2.88;;
45388;SDS011;31127;52.078;4.370;2023-04-03T07:28:08;6.80;;;2.67;;
45388;SDS011;31127;52.078;4.370;2023-04-03T07:33:04;8.77;;;2.63;;
45388;SDS011;31127;52.078;4.370;2023-04-03T07:37:59;4.43;;;2.10;;
45388;SDS011;31127;52.078;4.370;2023-04-03T07:42:55;6.25;;;2.92;;
45388;SDS011;31127;52.078;4.370;2023-04-03T07:47:52;5.30;;;2.17;;
45388;SDS011;31127;52.078;4.370;2023-04-03T07:52:47;7.50;;;2.60;;
45388;SDS011;31127;52.078;4.370;2023-04-03T07:57:43;7.85;;;3.13;;
45388;SDS011;31127;52.078;4.370;2023-04-03T08:02:39;8.85;;;2.88;;
45388;SDS011;31127;52.078;4.370;2023-04-03T08:07:36;9.68;;;3.45;;
45388;SDS011;31127;52.078;4.370;2023-04-03T08:12:31;6.53;;;2.20;;
45388;SDS011;31127;52.078;4.370;2023-04-03T08:17:27;9.35;;;2.92;;
45388;SDS011;31127;52.078;4.370;2023-04-03T08:22:22;8.48;;;2.70;;
45388;SDS011;31127;52.078;4.370;2023-04-03T08:27:38;11.18;;;3.00;;
45388;SDS011;31127;52.078;4.370;2023-04-03T08:32:34;9.40;;;2.40;;
45388;SDS011;31127;52.078;4.370;2023-04-03T08:37:31;6.60;;;2.78;;
45388;SDS011;31127;52.078;4.370;2023-04-03T08:42:40;4.50;;;1.98;;
45388;SDS011;31127;52.078;4.370;2023-04-03T08:52:47;6.63;;;2.00;;
45388;SDS011;31127;52.078;4.370;2023-04-03T08:58:10;5.55;;;2.35;;
45388;SDS011;31127;52.078;4.370;2023-04-03T09:03:16;6.45;;;2.72;;
45388;SDS011;31127;52.078;4.370;2023-04-03T09:08:14;7.53;;;2.20;;
45388;SDS011;31127;52.078;4.370;2023-04-03T09:13:30;3.78;;;1.98;;
45388;SDS011;31127;52.078;4.370;2023-04-03T09:18:32;4.43;;;2.08;;
45388;SDS011;31127;52.078;4.370;2023-04-03T09:23:42;9.63;;;2.00;;
45388;SDS011;31127;52.078;4.370;2023-04-03T09:28:40;4.05;;;1.67;;
45388;SDS011;31127;52.078;4.370;2023-04-03T09:33:37;4.80;;;1.80;;
45388;SDS011;31127;52.078;4.370;2023-04-03T09:38:34;4.15;;;1.42;;
45388;SDS011;31127;52.078;4.370;2023-04-03T09:43:31;7.07;;;1.60;;
45388;SDS011;31127;52.078;4.370;2023-04-03T09:48:27;4.05;;;1.75;;
45388;SDS011;31127;52.078;4.370;2023-04-03T09:53:43;7.15;;;2.15;;
45388;SDS011;31127;52.078;4.370;2023-04-03T09:58:40;2.70;;;1.60;;
45388;SDS011;31127;52.078;4.370;2023-04-03T10:04:03;3.67;;;1.40;;
45388;SDS011;31127;52.078;4.370;2023-04-03T10:08:59;2.70;;;1.40;;
45388;SDS011;31127;52.078;4.370;2023-04-03T10:13:57;3.08;;;0.73;;
45388;SDS011;31127;52.078;4.370;2023-04-03T10:24:28;1.67;;;0.90;;
45388;SDS011;31127;52.078;4.370;2023-04-03T10:29:35;3.63;;;1.23;;
45388;SDS011;31127;52.078;4.370;2023-04-03T10:34:32;3.00;;;1.35;;
45388;SDS011;31127;52.078;4.370;2023-04-03T10:44:47;4.80;;;1.30;;
45388;SDS011;31127;52.078;4.370;2023-04-03T10:50:01;2.65;;;1.30;;
45388;SDS011;31127;52.078;4.370;2023-04-03T11:00:15;0.98;;;0.95;;
45388;SDS011;31127;52.078;4.370;2023-04-03T11:10:35;1.55;;;1.15;;
45388;SDS011;31127;52.078;4.370;2023-04-03T11:15:32;1.17;;;1.02;;
45388;SDS011;31127;52.078;4.370;2023-04-03T11:20:29;3.42;;;1.08;;
45388;SDS011;31127;52.078;4.370;2023-04-03T11:25:28;4.50;;;1.30;;
45388;SDS011;31127;52.078;4.370;2023-04-03T11:30:27;1.67;;;1.40;;
45388;SDS011;31127;52.078;4.370;2023-04-03T11:35:23;1.50;;;1.30;;
45388;SDS011;31127;52.078;4.370;2023-04-03T11:40:22;1.95;;;1.10;;
45388;SDS011;31127;52.078;4.370;2023-04-03T11:50:32;2.55;;;1.40;;
45388;SDS011;31127;52.078;4.370;2023-04-03T11:55:42;1.48;;;1.10;;
45388;SDS011;31127;52.078;4.370;2023-04-03T12:05:39;1.70;;;1.33;;
45388;SDS011;31127;52.078;4.370;2023-04-03T12:10:36;1.00;;;0.90;;
45388;SDS011;31127;52.078;4.370;2023-04-03T12:25:48;1.25;;;1.10;;
45388;SDS011;31127;52.078;4.370;2023-04-03T12:30:45;0.95;;;0.90;;
45388;SDS011;31127;52.078;4.370;2023-04-03T12:36:04;1.35;;;1.00;;
45388;SDS011;31127;52.078;4.370;2023-04-03T12:46:28;2.65;;;1.10;;
45388;SDS011;31127;52.078;4.370;2023-04-03T12:51:49;1.17;;;0.90;;
45388;SDS011;31127;52.078;4.370;2023-04-03T12:56:45;2.80;;;0.98;;
45388;SDS011;31127;52.078;4.370;2023-04-03T13:01:40;2.67;;;1.23;;
45388;SDS011;31127;52.078;4.370;2023-04-03T13:06:40;2.60;;;1.00;;
45388;SDS011;31127;52.078;4.370;2023-04-03T13:11:37;1.37;;;0.93;;
45388;SDS011;31127;52.078;4.370;2023-04-03T13:16:33;1.25;;;0.88;;
45388;SDS011;31127;52.078;4.370;2023-04-03T13:21:29;1.40;;;1.20;;
45388;SDS011;31127;52.078;4.370;2023-04-03T13:26:30;3.22;;;1.38;;
45388;SDS011;31127;52.078;4.370;2023-04-03T13:31:46;1.37;;;1.23;;
45388;SDS011;31127;52.078;4.370;2023-04-03T13:36:55;3.70;;;1.40;;
45388;SDS011;31127;52.078;4.370;2023-04-03T13:41:54;3.15;;;1.20;;
45388;SDS011;31127;52.078;4.370;2023-04-03T13:46:52;2.65;;;1.25;;
45388;SDS011;31127;52.078;4.370;2023-04-03T13:51:48;1.23;;;1.08;;
45388;SDS011;31127;52.078;4.370;2023-04-03T13:56:44;1.70;;;1.60;;
45388;SDS011;31127;52.078;4.370;2023-04-03T14:01:45;2.35;;;1.58;;
45388;SDS011;31127;52.078;4.370;2023-04-03T14:06:40;3.70;;;1.83;;
45388;SDS011;31127;52.078;4.370;2023-04-03T14:11:36;1.73;;;1.40;;
45388;SDS011;31127;52.078;4.370;2023-04-03T14:16:32;2.92;;;1.60;;
45388;SDS011;31127;52.078;4.370;2023-04-03T14:21:28;2.75;;;1.30;;
45388;SDS011;31127;52.078;4.370;2023-04-03T14:26:24;1.38;;;1.20;;
45388;SDS011;31127;52.078;4.370;2023-04-03T14:31:21;2.20;;;1.60;;
45388;SDS011;31127;52.078;4.370;2023-04-03T14:36:28;2.67;;;1.52;;
45388;SDS011;31127;52.078;4.370;2023-04-03T14:41:44;2.45;;;1.63;;
45388;SDS011;31127;52.078;4.370;2023-04-03T14:46:43;3.63;;;1.88;;
45388;SDS011;31127;52.078;4.370;2023-04-03T14:51:39;3.70;;;1.77;;
45388;SDS011;31127;52.078;4.370;2023-04-03T14:56:35;2.88;;;1.60;;
45388;SDS011;31127;52.078;4.370;2023-04-03T15:01:30;3.95;;;1.30;;
45388;SDS011;31127;52.078;4.370;2023-04-03T15:06:26;5.32;;;2.97;;
45388;SDS011;31127;52.078;4.370;2023-04-03T15:11:21;2.63;;;1.70;;
45388;SDS011;31127;52.078;4.370;2023-04-03T15:16:18;2.37;;;1.90;;
45388;SDS011;31127;52.078;4.370;2023-04-03T15:21:14;1.67;;;1.48;;
45388;SDS011;31127;52.078;4.370;2023-04-03T15:26:10;2.30;;;1.85;;
45388;SDS011;31127;52.078;4.370;2023-04-03T15:31:06;3.90;;;1.92;;
45388;SDS011;31127;52.078;4.370;2023-04-03T15:36:02;2.78;;;1.50;;
45388;SDS011;31127;52.078;4.370;2023-04-03T15:40:58;1.70;;;1.60;;
45388;SDS011;31127;52.078;4.370;2023-04-03T15:45:56;4.18;;;1.80;;
45388;SDS011;31127;52.078;4.370;2023-04-03T15:50:51;2.17;;;1.67;;
45388;SDS011;31127;52.078;4.370;2023-04-03T15:55:47;2.35;;;1.73;;
45388;SDS011;31127;52.078;4.370;2023-04-03T16:01:03;2.22;;;1.60;;
45388;SDS011;31127;52.078;4.370;2023-04-03T16:05:59;2.65;;;1.63;;
45388;SDS011;31127;52.078;4.370;2023-04-03T16:10:55;2.25;;;1.75;;
45388;SDS011;31127;52.078;4.370;2023-04-03T16:15:51;4.60;;;1.80;;
45388;SDS011;31127;52.078;4.370;2023-04-03T16:20:46;2.40;;;1.70;;
45388;SDS011;31127;52.078;4.370;2023-04-03T16:25:42;1.85;;;1.67;;
45388;SDS011;31127;52.078;4.370;2023-04-03T16:30:57;4.10;;;2.05;;
45388;SDS011;31127;52.078;4.370;2023-04-03T16:36:12;3.80;;;1.75;;
45388;SDS011;31127;52.078;4.370;2023-04-03T16:41:08;2.38;;;1.73;;
45388;SDS011;31127;52.078;4.370;2023-04-03T16:46:23;2.80;;;1.80;;
45388;SDS011;31127;52.078;4.370;2023-04-03T16:51:19;4.47;;;1.80;;
45388;SDS011;31127;52.078;4.370;2023-04-03T16:56:34;4.57;;;1.90;;
45388;SDS011;31127;52.078;4.370;2023-04-03T17:01:30;4.73;;;2.17;;
45388;SDS011;31127;52.078;4.370;2023-04-03T17:06:25;3.00;;;1.80;;
45388;SDS011;31127;52.078;4.370;2023-04-03T17:11:21;3.47;;;1.75;;
45388;SDS011;31127;52.078;4.370;2023-04-03T17:16:16;5.05;;;1.80;;
45388;SDS011;31127;52.078;4.370;2023-04-03T17:21:12;3.35;;;1.50;;
45388;SDS011;31127;52.078;4.370;2023-04-03T17:26:08;2.35;;;1.45;;
45388;SDS011;31127;52.078;4.370;2023-04-03T17:31:03;5.00;;;1.73;;
45388;SDS011;31127;52.078;4.370;2023-04-03T17:36:00;3.92;;;1.80;;
45388;SDS011;31127;52.078;4.370;2023-04-03T17:40:56;4.50;;;2.10;;
45388;SDS011;31127;52.078;4.370;2023-04-03T17:45:53;7.03;;;2.03;;
45388;SDS011;31127;52.078;4.370;2023-04-03T17:50:48;5.88;;;2.30;;
45388;SDS011;31127;52.078;4.370;2023-04-03T17:55:44;8.13;;;3.60;;
45388;SDS011;31127;52.078;4.370;2023-04-03T18:00:39;5.78;;;1.63;;
45388;SDS011;31127;52.078;4.370;2023-04-03T18:05:35;3.93;;;1.80;;
45388;SDS011;31127;52.078;4.370;2023-04-03T18:10:31;5.18;;;1.83;;
45388;SDS011;31127;52.078;4.370;2023-04-03T18:15:26;3.83;;;1.58;;
45388;SDS011;31127;52.078;4.370;2023-04-03T18:20:22;4.72;;;2.00;;
45388;SDS011;31127;52.078;4.370;2023-04-03T18:25:18;5.53;;;2.33;;
45388;SDS011;31127;52.078;4.370;2023-04-03T18:30:14;4.53;;;2.25;;
45388;SDS011;31127;52.078;4.370;2023-04-03T18:35:10;4.50;;;2.17;;
45388;SDS011;31127;52.078;4.370;2023-04-03T18:40:06;5.80;;;1.73;;
45388;SDS011;31127;52.078;4.370;2023-04-03T18:45:03;5.63;;;1.92;;
45388;SDS011;31127;52.078;4.370;2023-04-03T18:50:00;5.25;;;2.00;;
45388;SDS011;31127;52.078;4.370;2023-04-03T18:54:55;5.97;;;2.00;;
45388;SDS011;31127;52.078;4.370;2023-04-03T18:59:51;6.57;;;2.17;;
45388;SDS011;31127;52.078;4.370;2023-04-03T19:04:46;5.72;;;2.13;;
45388;SDS011;31127;52.078;4.370;2023-04-03T19:09:42;4.57;;;2.63;;
45388;SDS011;31127;52.078;4.370;2023-04-03T19:14:37;6.53;;;2.55;;
45388;SDS011;31127;52.078;4.370;2023-04-03T19:19:53;5.03;;;2.22;;
45388;SDS011;31127;52.078;4.370;2023-04-03T19:24:48;5.53;;;2.67;;
45388;SDS011;31127;52.078;4.370;2023-04-03T19:29:44;7.55;;;2.97;;
45388;SDS011;31127;52.078;4.370;2023-04-03T19:34:40;6.43;;;2.40;;
45388;SDS011;31127;52.078;4.370;2023-04-03T19:39:36;7.35;;;2.30;;
45388;SDS011;31127;52.078;4.370;2023-04-03T19:44:32;7.68;;;2.30;;
45388;SDS011;31127;52.078;4.370;2023-04-03T19:49:48;4.65;;;2.30;;
45388;SDS011;31127;52.078;4.370;2023-04-03T19:54:43;6.72;;;2.05;;
45388;SDS011;31127;52.078;4.370;2023-04-03T19:59:39;6.32;;;2.92;;
45388;SDS011;31127;52.078;4.370;2023-04-03T20:04:35;5.13;;;2.13;;
45388;SDS011;31127;52.078;4.370;2023-04-03T20:09:31;5.25;;;2.47;;
45388;SDS011;31127;52.078;4.370;2023-04-03T20:14:27;6.18;;;2.40;;
45388;SDS011;31127;52.078;4.370;2023-04-03T20:19:42;3.78;;;2.20;;
45388;SDS011;31127;52.078;4.370;2023-04-03T20:24:39;7.35;;;2.22;;
45388;SDS011;31127;52.078;4.370;2023-04-03T20:29:35;5.05;;;2.17;;
45388;SDS011;31127;52.078;4.370;2023-04-03T20:34:30;7.68;;;2.17;;
45388;SDS011;31127;52.078;4.370;2023-04-03T20:39:26;5.75;;;2.38;;
45388;SDS011;31127;52.078;4.370;2023-04-03T20:44:22;6.93;;;2.88;;
45388;SDS011;31127;52.078;4.370;2023-04-03T20:49:18;6.78;;;2.90;;
45388;SDS011;31127;52.078;4.370;2023-04-03T20:54:14;5.90;;;2.13;;
45388;SDS011;31127;52.078;4.370;2023-04-03T20:59:10;5.10;;;1.90;;
45388;SDS011;31127;52.078;4.370;2023-04-03T21:04:18;4.60;;;2.35;;
45388;SDS011;31127;52.078;4.370;2023-04-03T21:19:43;4.70;;;2.45;;
45388;SDS011;31127;52.078;4.370;2023-04-03T21:24:43;4.53;;;2.70;;
45388;SDS011;31127;52.078;4.370;2023-04-03T21:29:39;5.15;;;2.10;;
45388;SDS011;31127;52.078;4.370;2023-04-03T21:34:35;4.72;;;2.20;;
45388;SDS011;31127;52.078;4.370;2023-04-03T21:39:30;6.05;;;2.15;;
45388;SDS011;31127;52.078;4.370;2023-04-03T21:44:26;5.40;;;2.15;;
45388;SDS011;31127;52.078;4.370;2023-04-03T21:49:22;6.00;;;2.13;;
45388;SDS011;31127;52.078;4.370;2023-04-03T21:54:18;3.47;;;1.98;;
45388;SDS011;31127;52.078;4.370;2023-04-03T21:59:14;5.95;;;2.47;;
45388;SDS011;31127;52.078;4.370;2023-04-03T22:04:29;5.18;;;1.92;;
45388;SDS011;31127;52.078;4.370;2023-04-03T22:09:25;7.47;;;2.13;;
45388;SDS011;31127;52.078;4.370;2023-04-03T22:14:20;5.70;;;2.57;;
45388;SDS011;31127;52.078;4.370;2023-04-03T22:19:15;4.05;;;2.35;;
45388;SDS011;31127;52.078;4.370;2023-04-03T22:24:11;5.78;;;2.05;;
45388;SDS011;31127;52.078;4.370;2023-04-03T22:29:07;5.38;;;2.45;;
45388;SDS011;31127;52.078;4.370;2023-04-03T22:34:22;4.65;;;2.25;;
45388;SDS011;31127;52.078;4.370;2023-04-03T22:39:18;7.57;;;2.38;;
45388;SDS011;31127;52.078;4.370;2023-04-03T22:44:14;7.65;;;2.70;;
45388;SDS011;31127;52.078;4.370;2023-04-03T22:49:12;4.25;;;2.13;;
45388;SDS011;31127;52.078;4.370;2023-04-03T22:54:07;4.93;;;2.33;;
45388;SDS011;31127;52.078;4.370;2023-04-03T22:59:02;6.17;;;2.37;;
45388;SDS011;31127;52.078;4.370;2023-04-03T23:03:58;6.90;;;2.45;;
45388;SDS011;31127;52.078;4.370;2023-04-03T23:08:53;6.80;;;2.45;;
45388;SDS011;31127;52.078;4.370;2023-04-03T23:13:50;9.20;;;2.33;;
45388;SDS011;31127;52.078;4.370;2023-04-03T23:18:47;6.30;;;2.53;;
45388;SDS011;31127;52.078;4.370;2023-04-03T23:23:44;10.15;;;2.58;;
45388;SDS011;31127;52.078;4.370;2023-04-03T23:28:40;5.18;;;2.22;;
45388;SDS011;31127;52.078;4.370;2023-04-03T23:33:36;6.35;;;2.75;;
45388;SDS011;31127;52.078;4.370;2023-04-03T23:38:32;7.72;;;3.10;;
45388;SDS011;31127;52.078;4.370;2023-04-03T23:43:28;9.15;;;4.65;;
45388;SDS011;31127;52.078;4.370;2023-04-03T23:48:23;4.82;;;2.40;;
45388;SDS011;31127;52.078;4.370;2023-04-03T23:53:19;10.23;;;2.95;;
45388;SDS011;31127;52.078;4.370;2023-04-03T23:58:14;6.57;;;2.53;;
